createdAt,value
2022-08-20T00:00:15.814Z,5.72
2022-08-20T00:04:20.301Z,5.10
2022-08-20T00:08:23.830Z,5.20
2022-08-20T00:12:57.886Z,5.55
2022-08-20T00:17:01.150Z,4.88
2022-08-20T00:21:08.577Z,5.45
2022-08-20T00:25:13.191Z,5.38
2022-08-20T00:29:16.828Z,4.72
2022-08-20T00:33:24.554Z,4.93
2022-08-20T00:37:29.203Z,5.05
2022-08-20T00:41:32.516Z,5.25
2022-08-20T00:45:36.924Z,4.82
2022-08-20T00:49:40.353Z,5.35
2022-08-20T00:53:45.818Z,4.82
2022-08-20T00:58:00.680Z,4.30
2022-08-20T01:02:25.481Z,3.97
2022-08-20T01:06:28.901Z,4.78
2022-08-20T01:10:36.742Z,4.20
2022-08-20T01:15:09.304Z,4.47
2022-08-20T01:19:29.587Z,3.97
2022-08-20T01:23:41.617Z,4.30
2022-08-20T01:28:11.732Z,4.22
2022-08-20T01:32:14.878Z,4.32
2022-08-20T01:36:22.191Z,4.47
2022-08-20T01:40:39.949Z,4.07
2022-08-20T01:45:03.329Z,3.88
2022-08-20T01:49:15.640Z,4.40
2022-08-20T01:53:29.833Z,4.40
2022-08-20T01:58:00.356Z,4.22
2022-08-20T02:02:05.567Z,4.18
2022-08-20T02:06:08.809Z,4.40
2022-08-20T02:10:14.782Z,4.68
2022-08-20T02:14:19.299Z,4.72
2022-08-20T02:18:24.028Z,3.95
2022-08-20T02:23:00.832Z,4.85
2022-08-20T02:27:04.063Z,5.57
2022-08-20T02:31:08.651Z,4.68
2022-08-20T02:35:44.782Z,4.70
2022-08-20T02:39:48.579Z,4.90
2022-08-20T02:44:22.387Z,4.85
2022-08-20T02:48:25.575Z,5.15
2022-08-20T02:52:30.148Z,5.50
2022-08-20T02:56:33.399Z,5.85
2022-08-20T03:00:38.301Z,6.00
2022-08-20T03:05:11.972Z,6.00
2022-08-20T03:09:16.503Z,6.85
2022-08-20T03:13:50.382Z,6.95
2022-08-20T03:17:53.469Z,7.38
2022-08-20T03:21:56.749Z,7.55
2022-08-20T03:26:33.170Z,7.07
2022-08-20T03:30:37.990Z,6.85
2022-08-20T03:35:14.533Z,7.28
2022-08-20T03:39:48.179Z,7.22
2022-08-20T03:44:26.942Z,7.72
2022-08-20T03:48:31.712Z,8.30
2022-08-20T03:52:34.907Z,8.93
2022-08-20T03:56:38.046Z,8.68
2022-08-20T04:00:43.418Z,8.88
2022-08-20T04:05:18.976Z,9.93
2022-08-20T04:09:52.574Z,10.07
2022-08-20T04:14:30.047Z,9.98
2022-08-20T04:19:07.526Z,10.15
2022-08-20T04:23:12.128Z,9.95
2022-08-20T04:27:46.655Z,10.68
2022-08-20T04:32:21.367Z,10.60
2022-08-20T04:36:58.197Z,10.00
2022-08-20T04:41:36.396Z,10.75
2022-08-20T04:45:41.614Z,10.45
2022-08-20T04:50:16.137Z,11.35
2022-08-20T04:54:50.030Z,10.77
2022-08-20T04:59:29.004Z,11.02
2022-08-20T05:04:02.983Z,11.07
2022-08-20T05:08:40.694Z,12.13
2022-08-20T05:13:14.222Z,11.60
2022-08-20T05:17:56.343Z,11.10
2022-08-20T05:22:31.029Z,10.85
2022-08-20T05:26:34.857Z,11.30
2022-08-20T05:31:10.925Z,11.20
2022-08-20T05:35:47.638Z,10.88
2022-08-20T05:40:23.067Z,10.13
2022-08-20T05:44:56.919Z,10.40
2022-08-20T05:54:17.250Z,9.77
2022-08-20T05:58:22.681Z,10.48
2022-08-20T06:02:43.296Z,10.30
2022-08-20T06:07:05.193Z,10.82
2022-08-20T06:11:09.788Z,10.25
2022-08-20T06:15:14.233Z,10.55
2022-08-20T06:19:48.643Z,10.60
2022-08-20T06:24:23.493Z,10.95
2022-08-20T06:29:01.901Z,10.13
2022-08-20T06:33:35.716Z,10.27
2022-08-20T06:38:12.626Z,11.48
2022-08-20T06:42:49.349Z,11.90
2022-08-20T06:47:27.822Z,11.80
2022-08-20T06:52:03.588Z,11.85
2022-08-20T06:56:07.943Z,12.73
2022-08-20T07:00:44.577Z,11.50
2022-08-20T07:05:22.906Z,13.63
2022-08-20T07:09:56.637Z,13.65
2022-08-20T07:14:00.082Z,15.50
2022-08-20T07:18:05.874Z,15.82
2022-08-20T07:22:42.357Z,17.50
2022-08-20T07:27:16.738Z,17.95
2022-08-20T07:31:37.443Z,18.92
2022-08-20T07:35:55.710Z,20.20
2022-08-20T07:40:01.411Z,20.17
2022-08-20T07:44:39.438Z,22.38
2022-08-20T07:48:50.194Z,22.77
2022-08-20T07:52:54.351Z,23.67
2022-08-20T07:57:30.046Z,24.15
2022-08-20T08:02:03.391Z,25.10
2022-08-20T08:06:40.702Z,25.00
2022-08-20T08:11:19.378Z,24.27
2022-08-20T08:15:57.532Z,26.65
2022-08-20T08:20:28.219Z,27.85
2022-08-20T08:25:05.797Z,26.80
2022-08-20T08:29:39.994Z,26.55
2022-08-20T08:34:18.323Z,27.20
2022-08-20T08:38:52.239Z,27.02
2022-08-20T08:43:31.776Z,28.40
2022-08-20T08:48:05.761Z,27.95
2022-08-20T08:52:45.138Z,28.92
2022-08-20T08:57:07.679Z,29.55
2022-08-20T09:01:13.877Z,29.10
2022-08-20T09:05:49.825Z,28.58
2022-08-20T09:09:54.805Z,28.40
2022-08-20T09:13:58.671Z,29.42
2022-08-20T09:18:02.103Z,29.10
2022-08-20T09:22:39.066Z,28.48
2022-08-20T09:27:17.750Z,29.52
2022-08-20T09:31:20.914Z,30.80
2022-08-20T09:35:26.367Z,31.63
2022-08-20T09:39:30.600Z,29.65
2022-08-20T09:43:35.153Z,31.10
2022-08-20T09:47:38.404Z,32.28
2022-08-20T09:51:44.834Z,32.03
2022-08-20T09:55:51.189Z,37.28
2022-08-20T09:59:59.848Z,31.05
2022-08-20T10:04:30.485Z,32.53
2022-08-20T10:09:07.124Z,32.40
2022-08-20T10:13:43.944Z,32.53
2022-08-20T10:18:22.270Z,32.55
2022-08-20T10:22:27.356Z,32.88
2022-08-20T10:26:30.492Z,34.05
2022-08-20T10:31:08.073Z,33.40
2022-08-20T10:35:46.403Z,34.03
2022-08-20T10:40:20.754Z,33.72
2022-08-20T10:44:23.946Z,34.45
2022-08-20T10:48:27.340Z,35.50
2022-08-20T10:52:50.386Z,34.50
2022-08-20T10:57:26.544Z,34.78
2022-08-20T11:02:00.846Z,33.92
2022-08-20T11:06:04.428Z,34.22
2022-08-20T11:10:13.733Z,36.25
2022-08-20T11:14:17.244Z,34.70
2022-08-20T11:18:20.423Z,32.92
2022-08-20T11:22:23.759Z,33.47
2022-08-20T11:26:28.290Z,34.10
2022-08-20T11:30:41.490Z,34.10
2022-08-20T11:35:41.754Z,32.63
2022-08-20T11:39:54.635Z,34.17
2022-08-20T11:44:30.023Z,33.45
2022-08-20T11:49:06.898Z,32.40
2022-08-20T11:53:43.719Z,33.42
2022-08-20T11:58:20.431Z,31.92
2022-08-20T12:02:59.047Z,30.88
2022-08-20T12:07:10.575Z,28.17
2022-08-20T12:11:13.912Z,29.67
2022-08-20T12:15:17.098Z,25.30
2022-08-20T12:19:56.953Z,28.98
2022-08-20T12:24:30.790Z,28.65
2022-08-20T12:29:07.743Z,28.77
2022-08-20T12:33:44.744Z,27.08
2022-08-20T12:38:21.526Z,23.67
2022-08-20T12:43:00.020Z,25.15
2022-08-20T12:47:15.322Z,24.77
2022-08-20T12:51:18.447Z,26.23
2022-08-20T12:55:52.518Z,25.27
2022-08-20T13:00:32.443Z,25.35
2022-08-20T13:05:12.206Z,25.40
2022-08-20T13:09:46.340Z,24.83
2022-08-20T13:14:23.938Z,25.52
2022-08-20T13:19:02.505Z,22.88
2022-08-20T13:23:39.555Z,23.67
2022-08-20T13:28:16.429Z,22.65
2022-08-20T13:32:53.281Z,23.40
2022-08-20T13:37:32.005Z,22.23
2022-08-20T13:42:05.714Z,23.38
2022-08-20T13:46:42.950Z,20.80
2022-08-20T13:50:46.814Z,21.52
2022-08-20T13:55:23.778Z,21.60
2022-08-20T13:59:59.141Z,19.17
2022-08-20T14:04:02.366Z,21.33
2022-08-20T14:08:39.129Z,22.30
2022-08-20T14:12:44.070Z,22.02
2022-08-20T14:16:48.272Z,22.52
2022-08-20T14:21:22.318Z,22.85
2022-08-20T14:25:59.801Z,22.45
2022-08-20T14:30:06.355Z,21.80
2022-08-20T14:34:09.475Z,20.10
2022-08-20T14:38:46.317Z,21.35
2022-08-20T14:42:51.528Z,21.50
2022-08-20T14:47:28.660Z,22.08
2022-08-20T14:56:47.254Z,22.05
2022-08-20T15:00:50.416Z,22.60
2022-08-20T15:05:27.030Z,21.17
2022-08-20T15:09:33.269Z,22.23
2022-08-20T15:14:07.151Z,21.88
2022-08-20T15:18:12.028Z,20.88
2022-08-20T15:22:49.633Z,21.48
2022-08-20T15:27:26.078Z,21.88
2022-08-20T15:32:00.847Z,20.00
2022-08-20T15:36:04.977Z,21.25
2022-08-20T15:40:40.947Z,20.65
2022-08-20T15:45:21.769Z,20.13
2022-08-20T15:49:25.998Z,20.67
2022-08-20T15:53:56.623Z,21.70
2022-08-20T15:58:36.189Z,20.95
2022-08-20T16:03:22.036Z,21.52
2022-08-20T16:07:34.960Z,23.08
2022-08-20T16:12:03.551Z,13.40
2022-08-20T16:16:36.859Z,12.88
2022-08-20T16:21:10.890Z,10.48
2022-08-20T16:25:56.406Z,13.00
2022-08-20T16:30:30.870Z,12.48
2022-08-20T16:34:59.820Z,13.10
2022-08-20T16:39:38.344Z,11.88
2022-08-20T16:44:09.014Z,13.00
2022-08-20T16:48:58.057Z,13.52
2022-08-20T16:53:23.762Z,14.10
2022-08-20T16:58:00.494Z,13.40
2022-08-20T17:02:36.984Z,13.63
2022-08-20T17:07:15.626Z,14.20
2022-08-20T17:11:53.197Z,15.15
2022-08-20T17:16:36.554Z,14.25
2022-08-20T17:21:06.041Z,13.85
2022-08-20T17:25:44.828Z,14.32
2022-08-20T17:30:21.115Z,14.07
2022-08-20T17:34:56.325Z,13.80
2022-08-20T17:39:31.678Z,13.18
2022-08-20T17:44:08.103Z,11.63
2022-08-20T17:48:44.906Z,12.07
2022-08-20T17:52:52.298Z,12.23
2022-08-20T17:57:24.967Z,11.85
2022-08-20T18:01:58.647Z,13.15
2022-08-20T18:06:41.476Z,12.40
2022-08-20T18:11:17.734Z,15.48
2022-08-20T18:15:30.386Z,15.00
2022-08-20T18:20:13.184Z,13.85
2022-08-20T18:24:21.949Z,13.63
2022-08-20T18:28:55.012Z,12.88
2022-08-20T18:33:05.286Z,10.13
2022-08-20T18:37:36.092Z,10.23
2022-08-20T18:42:26.949Z,9.10
2022-08-20T18:46:55.801Z,8.63
2022-08-20T18:56:16.729Z,6.18
2022-08-20T19:00:52.304Z,4.43
2022-08-20T19:05:02.231Z,4.05
2022-08-20T19:09:12.962Z,4.40
2022-08-20T19:13:47.714Z,4.47
2022-08-20T19:18:16.756Z,4.55
2022-08-20T19:22:53.502Z,3.90
2022-08-20T19:27:04.563Z,4.15
2022-08-20T19:31:35.209Z,4.35
2022-08-20T19:36:14.110Z,3.90
2022-08-20T19:41:11.031Z,3.42
2022-08-20T19:45:25.164Z,4.30
2022-08-20T19:49:57.514Z,3.95
2022-08-20T19:54:26.568Z,3.88
2022-08-20T19:59:05.632Z,4.25
2022-08-20T20:03:37.785Z,4.10
2022-08-20T20:08:14.468Z,4.35
2022-08-20T20:12:48.576Z,4.50
2022-08-20T20:17:05.086Z,4.40
2022-08-20T20:21:14.520Z,4.40
2022-08-20T20:25:46.321Z,4.75
2022-08-20T20:30:35.618Z,4.50
2022-08-20T20:34:55.654Z,4.82
2022-08-20T20:39:01.346Z,4.97
2022-08-20T20:43:08.065Z,4.47
2022-08-20T20:47:21.875Z,5.38
2022-08-20T20:51:55.385Z,4.93
2022-08-20T20:56:31.152Z,4.43
2022-08-20T21:00:35.761Z,5.40
2022-08-20T21:05:10.519Z,5.40
2022-08-20T21:09:15.127Z,6.28
2022-08-20T21:13:18.224Z,6.15
2022-08-20T21:17:24.145Z,6.07
2022-08-20T21:21:27.275Z,5.57
2022-08-20T21:26:05.865Z,6.72
2022-08-20T21:30:09.729Z,7.80
2022-08-20T21:34:14.823Z,8.23
2022-08-20T21:38:17.953Z,7.13
2022-08-20T21:42:29.141Z,8.00
2022-08-20T21:46:32.831Z,8.05
2022-08-20T21:50:37.469Z,8.57
2022-08-20T21:59:58.302Z,9.10
2022-08-20T22:04:01.546Z,9.57
2022-08-20T22:08:05.189Z,8.52
2022-08-20T22:12:42.006Z,10.13
2022-08-20T22:16:46.829Z,9.70
2022-08-20T22:21:22.770Z,9.68
2022-08-20T22:25:25.877Z,9.38
2022-08-20T22:29:29.144Z,9.98
2022-08-20T22:33:34.266Z,10.82
2022-08-20T22:37:37.638Z,9.70
2022-08-20T22:41:41.310Z,9.85
2022-08-20T22:46:18.338Z,10.38
2022-08-20T22:50:25.066Z,10.30
2022-08-20T22:54:28.404Z,9.35
2022-08-20T22:58:31.611Z,10.73
2022-08-20T23:03:09.135Z,10.30
2022-08-20T23:07:15.351Z,10.32
2022-08-20T23:11:18.462Z,10.98
2022-08-20T23:15:55.353Z,9.10
2022-08-20T23:19:59.482Z,10.65
2022-08-20T23:24:04.252Z,10.18
2022-08-20T23:28:09.317Z,9.82
2022-08-20T23:32:13.171Z,11.55
2022-08-20T23:36:19.010Z,10.75
2022-08-20T23:40:28.396Z,10.65
2022-08-20T23:44:31.911Z,10.80
2022-08-20T23:49:08.912Z,10.48
2022-08-20T23:53:12.157Z,11.20
2022-08-20T23:57:17.053Z,8.95
